Latest Weather Observations for Hindmarsh Island

IDS60801

Issued at 12:35 pm CST Thursday 28 August 2014 (issued every 30 minutes, with the page automatically refreshed every 10 minutes)

About weather observations | Map of weather stations | Latest weather observations for SA | Other Formats
Station Details ID: 023894 Name: HINDMARSH ISLAND AWS Lat: -35.52 Lon: 138.82 Height: 11.0 m
Data from the previous 72 hours. | See also: Recent months at Hindmarsh Island
Date/Time
CST
Temp
°C
App
Temp
°C
Dew
Point
Rel
Hum
%
Delta-T
°C
Wind Press
QNH
hPa
Press
MSL
hPa
Rain
since 9 am
mm
Dir
 
Spd
km/h
Gust
km/h
Spd
kts
Gust
kts
28/12:30pm 22.1 18.5 6.7 37 7.8 N 15 17 8 9 1027.6 - 0.0
28/12:00pm 21.1 18.4 7.3 41 7.0 N 11 13 6 7 1028.2 1028.2 0.0
28/11:30am 21.0 18.9 9.6 48 6.1 NNE 11 13 6 7 1028.6 - 0.0
28/11:00am 19.3 17.0 8.9 51 5.4 NNE 11 13 6 7 1028.8 - 0.0
28/10:30am 18.3 16.2 9.6 57 4.6 N 11 15 6 8 1028.8 - 0.0
28/10:00am 17.0 14.6 9.9 63 3.7 NNE 13 17 7 9 1028.8 - 0.0
28/09:30am 15.7 12.9 8.7 63 3.6 NE 13 17 7 9 1028.9 - 0.0
28/09:00am 14.5 13.1 9.5 72 2.6 ENE 7 9 4 5 1028.9 1028.9 0.0
28/08:30am 12.6 11.1 8.5 76 2.0 NNE 6 7 3 4 1028.9 - 0.0
28/08:00am 10.7 9.0 7.6 81 1.5 N 6 7 3 4 1028.8 - 0.0
28/07:30am 9.0 6.5 6.6 85 1.1 N 9 11 5 6 1028.5 - 0.0
28/07:00am 8.0 5.3 5.5 84 1.1 N 9 11 5 6 1028.3 - 0.0
28/06:30am 8.4 5.3 5.7 83 1.2 N 11 13 6 7 1027.9 - 0.0
28/06:00am 9.1 6.4 5.8 80 1.5 N 9 11 5 6 1027.6 1027.6 0.0
28/05:30am 8.9 5.9 5.8 81 1.4 N 11 13 6 7 1027.5 - 0.0
28/05:00am 8.6 5.5 5.5 81 1.4 N 11 13 6 7 1027.4 - 0.0
28/04:30am 8.4 5.4 5.9 84 1.1 N 11 13 6 7 1027.4 - 0.0
28/04:00am 8.5 5.6 6.5 87 0.9 N 11 11 6 6 1027.3 - 0.0
28/03:30am 9.1 6.9 6.4 83 1.2 N 7 9 4 5 1027.5 - 0.0
28/03:00am 8.9 7.9 5.6 80 1.5 CALM 0 0 0 0 1027.6 1027.6 0.0
28/02:30am 9.8 7.2 6.0 77 1.8 NNW 9 11 5 6 1027.7 - 0.0
28/02:00am 10.2 7.6 6.2 76 1.9 NNW 9 11 5 6 1027.9 - 0.0
28/01:30am 9.8 6.5 6.2 78 1.7 NNW 13 15 7 8 1028.1 - 0.0
28/01:00am 9.8 6.6 6.9 82 1.4 N 13 13 7 7 1028.3 - 0.0
28/12:30am 9.7 7.3 7.0 83 1.3 N 9 11 5 6 1028.3 - 0.0
28/12:00am 10.0 8.1 7.4 84 1.2 N 7 11 4 6 1028.5 1028.5 0.0
 
Date/Time
CST
Temp
°C
App
Temp
°C
Dew
Point
Rel
Hum
%
Delta-T
°C
Wind Press
QNH
hPa
Press
MSL
hPa
Rain
since 9 am
mm
Dir
 
Spd
km/h
Gust
km/h
Spd
kts
Gust
kts
27/11:30pm 9.8 7.8 7.2 84 1.2 NNE 7 9 4 5 1028.4 - 0.0
27/11:00pm 10.2 9.7 8.0 86 1.1 CALM 0 4 0 2 1028.6 - 0.0
27/10:30pm 11.5 11.3 9.1 85 1.2 CALM 0 0 0 0 1028.5 - 0.0
27/10:00pm 11.0 10.5 8.0 82 1.5 CALM 0 0 0 0 1028.4 - 0.0
27/09:30pm 11.9 10.5 9.5 85 1.2 W 7 9 4 5 1028.3 - 0.0
27/09:00pm 12.3 10.7 10.2 87 1.1 W 9 11 5 6 1028.1 1028.1 0.0
27/08:30pm 12.5 11.0 10.4 87 1.1 W 9 13 5 7 1027.9 - 0.0
27/08:00pm 13.2 11.8 10.9 86 1.2 W 9 11 5 6 1027.7 - 0.0
27/07:30pm 13.5 12.1 10.9 84 1.4 WSW 9 11 5 6 1027.3 - 0.0
27/07:00pm 13.8 12.9 10.8 82 1.6 SW 6 7 3 4 1027.1 - 0.0
27/06:30pm 13.7 12.7 11.0 84 1.4 SSW 7 9 4 5 1026.9 - 0.0
27/06:00pm 14.2 12.9 11.4 83 1.5 S 9 11 5 6 1026.7 1026.7 0.0
27/05:30pm 15.2 13.6 11.4 78 2.0 S 11 13 6 7 1026.3 - 0.0
27/05:00pm 16.6 14.5 11.3 71 2.9 S 13 13 7 7 1026.0 - 0.0
27/04:30pm 17.8 15.1 10.4 62 4.0 SSE 15 17 8 9 1025.7 - 0.0
27/04:00pm 19.1 16.8 10.6 58 4.6 SSE 13 15 7 8 1025.5 - 0.0
27/03:30pm 19.0 16.1 9.5 54 5.0 SSE 15 17 8 9 1025.5 - 0.0
27/03:00pm 19.2 16.3 9.7 54 5.0 SSE 15 17 8 9 1025.5 1025.5 0.0
27/02:30pm 19.6 18.8 10.9 57 4.7 SW 6 11 3 6 1025.7 - 0.0
27/02:00pm 20.9 18.4 8.2 44 6.6 ENE 11 15 6 8 1025.7 - 0.0
27/01:30pm 20.2 18.0 7.9 45 6.4 NE 9 17 5 9 1025.8 - 0.0
27/01:00pm 20.1 17.9 7.8 45 6.3 NNE 9 15 5 8 1026.1 - 0.0
27/12:30pm 19.8 17.5 7.5 45 6.3 NNE 9 13 5 7 1026.6 - 0.0
27/12:00pm 19.0 16.2 7.1 46 6.0 NNE 11 15 6 8 1027.1 1027.1 0.0
27/11:30am 19.0 16.3 7.4 47 5.9 NNE 11 15 6 8 1027.5 - 0.0
27/11:00am 17.9 15.6 7.6 51 5.2 NNE 9 13 5 7 1027.9 - 0.0
27/10:30am 16.7 15.6 9.9 64 3.6 N 6 9 3 5 1028.0 - 0.0
27/10:00am 15.7 13.5 9.4 66 3.3 NNE 11 13 6 7 1028.0 - 0.0
27/09:30am 14.0 11.3 8.8 71 2.6 NNE 13 17 7 9 1027.8 - 0.0
27/09:00am 12.5 9.3 8.6 77 1.9 NNE 15 19 8 10 1027.6 1027.6 0.2
27/08:30am 11.6 9.6 8.5 81 1.5 N 9 15 5 8 1027.4 - 0.2
27/08:00am 9.9 7.2 7.5 85 1.1 N 11 15 6 8 1027.0 - 0.2
27/07:30am 7.6 5.0 5.9 89 0.8 NNW 9 13 5 7 1026.9 - 0.2
27/07:00am 7.4 4.0 5.9 90 0.7 N 13 17 7 9 1026.5 - 0.2
27/06:30am 7.3 3.1 5.8 90 0.7 N 17 20 9 11 1026.0 - 0.2
27/06:00am 7.3 3.6 6.1 92 0.5 N 15 19 8 10 1025.7 1025.7 0.0
27/05:30am 6.8 3.3 5.4 91 0.6 N 13 15 7 8 1025.9 - 0.0
27/05:00am 6.9 4.2 5.5 91 0.6 N 9 11 5 6 1026.0 - 0.0
27/04:30am 6.7 3.5 5.3 91 0.6 NW 11 11 6 6 1025.9 - 0.0
27/04:00am 7.4 4.4 6.2 92 0.5 N 11 13 6 7 1025.6 - 0.0
27/03:30am 7.5 5.4 6.0 90 0.7 N 6 7 3 4 1025.8 - 0.0
27/03:00am 7.2 5.1 5.7 90 0.7 NW 6 7 3 4 1026.0 1026.0 0.0
27/02:30am 7.8 5.3 6.4 91 0.6 N 9 9 5 5 1026.0 - 0.0
27/02:00am 7.7 5.5 6.2 90 0.7 N 7 9 4 5 1025.7 - 0.0
27/01:30am 8.4 6.4 7.0 91 0.7 NNW 7 9 4 5 1025.7 - 0.0
27/01:00am 8.3 5.9 6.8 90 0.7 N 9 11 5 6 1025.9 - 0.0
27/12:30am 8.9 6.5 7.2 89 0.8 NE 9 9 5 5 1026.0 - 0.0
27/12:00am 9.1 7.2 7.4 89 0.8 N 7 9 4 5 1026.1 1026.1 0.0
 
Date/Time
CST
Temp
°C
App
Temp
°C
Dew
Point
Rel
Hum
%
Delta-T
°C
Wind Press
QNH
hPa
Press
MSL
hPa
Rain
since 9 am
mm
Dir
 
Spd
km/h
Gust
km/h
Spd
kts
Gust
kts
26/11:30pm 9.4 7.0 7.2 86 1.0 NE 9 11 5 6 1026.1 - 0.0
26/11:00pm 9.9 7.7 7.8 87 1.0 N 9 9 5 5 1026.1 - 0.0
26/10:30pm 10.0 8.1 7.6 85 1.1 N 7 9 4 5 1026.1 - 0.0
26/10:00pm 10.2 8.4 8.1 87 1.0 NW 7 9 4 5 1026.1 - 0.0
26/09:30pm 10.3 8.2 8.4 88 0.9 W 9 11 5 6 1026.2 - 0.0
26/09:00pm 10.7 9.1 8.6 87 1.0 W 7 7 4 4 1026.2 1026.2 0.0
26/08:30pm 10.7 9.1 8.8 88 0.9 W 7 9 4 5 1026.0 - 0.0
26/08:00pm 11.1 9.7 8.7 85 1.2 NNW 6 7 3 4 1025.7 - 0.0
26/07:30pm 11.6 10.3 9.2 85 1.2 N 6 7 3 4 1025.4 - 0.0
26/07:00pm 11.6 11.4 9.0 84 1.3 CALM 0 7 0 4 1025.2 - 0.0
26/06:30pm 11.8 9.4 8.8 82 1.5 ESE 11 15 6 8 1024.9 - 0.0
26/06:00pm 12.9 10.0 9.7 81 1.6 SE 15 17 8 9 1024.7 1024.7 0.0
26/05:30pm 13.5 10.2 9.7 78 1.9 SE 17 19 9 10 1024.5 - 0.0
26/05:00pm 14.1 10.4 9.5 74 2.4 SE 19 20 10 11 1024.3 - 0.0
26/04:30pm 14.5 10.8 9.5 72 2.6 SE 19 20 10 11 1024.3 - 0.0
26/04:00pm 15.0 11.2 9.8 71 2.7 SSE 20 24 11 13 1024.3 - 0.0
26/03:30pm 17.4 13.3 6.0 47 5.6 E 17 20 9 11 1024.3 - 0.0
26/03:00pm 17.2 13.1 6.4 49 5.3 E 17 22 9 12 1024.5 1024.5 0.0
26/02:30pm 17.7 14.8 8.0 53 4.9 ENE 13 20 7 11 1024.6 - 0.0
26/02:00pm 17.8 14.5 8.1 53 5.0 ENE 15 20 8 11 1024.9 - 0.0
26/01:30pm 17.6 14.5 7.4 51 5.1 NNE 13 19 7 10 1025.2 - 0.0
26/01:00pm 17.2 14.2 7.5 53 4.9 NNE 13 19 7 10 1025.5 - 0.0
26/12:30pm 16.4 13.4 7.6 56 4.4 N 13 19 7 10 1025.9 - 0.0
26/12:00pm 16.2 13.0 8.4 60 3.9 NNE 15 20 8 11 1026.3 1026.3 0.0
26/11:30am 15.4 12.7 8.9 65 3.3 NNE 13 22 7 12 1026.9 - 0.0
26/11:00am 14.3 11.5 8.5 68 2.9 N 13 17 7 9 1027.3 - 0.0
26/10:30am 13.6 10.4 8.4 71 2.6 NNE 15 22 8 12 1027.7 - 0.0
26/10:00am 12.7 9.2 8.6 76 2.0 NNE 17 22 9 12 1028.0 - 0.0
26/09:30am 11.7 8.9 8.4 80 1.6 N 13 20 7 11 1028.3 - 0.0
26/09:00am 10.7 7.5 8.6 87 1.0 N 15 19 8 10 1028.4 1028.4 0.0
26/08:30am 9.7 6.8 8.0 89 0.8 N 13 19 7 10 1028.5 - 0.0
26/08:00am 9.9 7.0 8.3 90 0.8 NNE 13 19 7 10 1028.4 - 0.0
26/07:30am 9.5 7.0 8.3 92 0.6 NNE 11 15 6 8 1028.2 - 0.0
26/07:00am 8.5 6.6 7.6 94 0.4 N 7 11 4 6 1027.9 - 0.0
26/06:30am 8.4 6.5 7.5 94 0.4 N 7 9 4 5 1027.5 - 0.0
26/06:00am 8.5 6.6 7.6 94 0.4 NNE 7 11 4 6 1027.2 1027.2 0.0
26/05:30am 7.4 4.1 6.5 94 0.4 ENE 13 15 7 8 1027.1 - 0.0
26/05:00am 7.9 5.0 6.7 92 0.6 NNE 11 11 6 6 1027.0 - 0.0
26/04:30am 7.5 6.1 5.5 87 0.9 NE 2 9 1 5 1026.9 - 0.0
26/04:00am 9.6 9.1 8.0 90 0.8 CALM 0 0 0 0 1027.1 - 0.0
26/03:30am 9.5 8.2 7.8 89 0.8 NE 4 6 2 3 1027.2 - 0.0
26/03:00am 10.1 8.3 8.0 87 1.0 NE 7 9 4 5 1027.3 1027.3 0.0
26/02:30am 10.3 8.7 8.1 86 1.1 NNE 6 7 3 4 1027.8 - 0.0
26/02:00am 10.0 8.4 7.9 87 1.0 N 6 7 3 4 1028.0 - 0.0
26/01:30am 10.0 8.3 7.4 84 1.2 N 6 6 3 3 1028.1 - 0.0
26/01:00am 9.7 7.9 7.1 84 1.2 NNW 6 7 3 4 1028.1 - 0.0
26/12:30am 9.6 7.6 7.2 85 1.1 N 7 9 4 5 1028.3 - 0.0
26/12:00am 9.6 7.8 7.2 85 1.1 N 6 7 3 4 1028.6 1028.6 0.0
 
Date/Time
CST
Temp
°C
App
Temp
°C
Dew
Point
Rel
Hum
%
Delta-T
°C
Wind Press
QNH
hPa
Press
MSL
hPa
Rain
since 9 am
mm
Dir
 
Spd
km/h
Gust
km/h
Spd
kts
Gust
kts
25/11:30pm 9.5 8.0 6.9 84 1.2 ENE 4 7 2 4 1028.7 - 0.0
25/11:00pm 10.0 8.6 7.1 82 1.4 SE 4 7 2 4 1029.0 - 0.0
25/10:30pm 9.9 8.8 6.8 81 1.5 SE 2 7 1 4 1029.2 - 0.0
25/10:00pm 10.4 8.1 7.5 82 1.4 SSE 9 11 5 6 1029.3 - 0.0
25/09:30pm 11.1 8.1 7.6 79 1.7 SE 13 17 7 9 1029.4 - 0.0
25/09:00pm 11.5 8.1 7.8 78 1.8 SSE 15 17 8 9 1029.6 1029.6 0.0
25/08:30pm 11.4 7.6 7.5 77 1.9 SSE 17 20 9 11 1029.8 - 0.0
25/08:00pm 11.5 7.2 7.2 75 2.1 SSE 19 24 10 13 1029.7 - 0.0
25/07:30pm 11.7 7.3 7.2 74 2.2 SSE 20 26 11 14 1029.6 - 0.0
25/07:00pm 11.7 6.8 7.0 73 2.2 SSE 22 28 12 15 1029.3 - 0.0
25/06:30pm 11.9 7.0 6.8 71 2.4 SSE 22 26 12 14 1029.3 - 0.0
25/06:00pm 11.9 7.4 6.8 71 2.4 SSE 20 24 11 13 1029.0 1029.0 0.0
25/05:30pm 12.1 7.6 6.8 70 2.5 SSE 20 22 11 12 1028.8 - 0.0
25/05:00pm 12.6 8.1 6.9 68 2.7 SSE 20 22 11 12 1028.6 - 0.0
25/04:30pm 13.0 8.5 6.8 66 3.0 SSE 20 22 11 12 1028.5 - 0.0
25/04:00pm 13.4 9.0 7.2 66 3.0 S 20 24 11 13 1028.6 - 0.0
25/03:30pm 13.7 9.2 7.0 64 3.3 SSE 20 24 11 13 1028.6 - 0.0
25/03:00pm 13.8 9.4 6.7 62 3.4 S 19 22 10 12 1028.7 1028.7 0.0
25/02:30pm 14.2 9.9 6.8 61 3.6 S 19 22 10 12 1028.8 - 0.0
25/02:00pm 14.0 9.7 7.1 63 3.4 S 19 24 10 13 1028.9 - 0.0
25/01:30pm 14.1 9.7 6.7 61 3.6 S 19 22 10 12 1029.2 - 0.0
25/01:00pm 14.3 10.2 6.2 58 3.9 SSE 17 22 9 12 1029.6 - 0.0

Other Formats:

Comma delimited format used in spreadsheet applications
http://www.bom.gov.au/fwo/IDS60801/IDS60801.94677.axf

JavaScript Object Notation format (JSON) in row-major order
http://www.bom.gov.au/fwo/IDS60801/IDS60801.94677.json